Terminal Aerodrome Forecast
Issued by NWS Riverton, WY

Home | Current Version | Previous Version | Text Only | Print | Product List | Glossary On
Versions: 1 2 3 4 5 6 7 8 9 10 11 12 13 14 15 16 17
000
FTUS45 KRIW 040642 AAA
TAFRIW
TAF AMD
KRIW 040642Z 0407/0506 24013G25KT P6SM VCTS SCT100CB BKN150
      TEMPO 0407/0408 VRB20G30KT -TSRA BKN100CB
     FM040800 19009KT P6SM FEW110
     FM042030 20017G25KT P6SM FEW110 SCT200
     FM050100 19011KT P6SM FEW110=

USA.gov is the U.S. government's official web portal to all federal, state and local government web resources and services.